Bookmark and Share
Track history (hours):
 

Salten

Last reported at 2014-Mar-26 16:33 UTC. Time now 2014-Apr-17 15:37 UTC.
Position N 67°23' E 014°29'.
Warning: this ship's position is 21 days out of date.

Length 41 m; draft 1.5 m.

Type: High speed craft. MMSI: 259387000.

NotesDate/timePositionNaut miles runAvg speedWind from/ knotsBaromVisibWave heightAir tempDewpointWater temp
2014-Mar-26 16:33N 67°23' E 014°29'6 6.0
2014-Mar-26 15:33N 67°17' E 014°23'0 0.5
2014-Mar-26 14:33N 67°17' E 014°22'0 0.0
2014-Mar-26 13:33N 67°17' E 014°22'0 0.0
2014-Mar-26 12:33N 67°17' E 014°22'0 0.0
2014-Mar-26 11:33N 67°17' E 014°22'8 8.5
2014-Mar-26 10:33N 67°11' E 014°06'4 0.2
2014-Mar-25 15:32N 67°07' E 014°03'1212.5
2014-Mar-25 14:33N 67°17' E 014°22'0 0.0
2014-Mar-25 13:33N 67°17' E 014°22'0 0.0
2014-Mar-25 12:33N 67°17' E 014°22'0 0.0
2014-Mar-25 11:33N 67°17' E 014°22'0 0.0
2014-Mar-25 10:33N 67°17' E 014°22'0 0.0
2014-Mar-25 09:33N 67°17' E 014°22'9 9.5
2014-Mar-25 08:33N 67°26' E 014°32'4 0.2
2014-Mar-24 16:52N 67°29' E 014°37'7 0.1
2014-Mar-22 16:33N 67°24' E 014°26'7 3.4
2014-Mar-22 14:33N 67°17' E 014°22'0 0.0
2014-Mar-22 13:33N 67°17' E 014°22'0 0.0
2014-Mar-22 12:33N 67°17' E 014°22'0 0.0
2014-Mar-22 11:33N 67°17' E 014°22'1210.9
2014-Mar-22 10:25N 67°07' E 014°02'1 0.1
2014-Mar-21 15:29N 67°08' E 013°59'1313.9
2014-Mar-21 14:33N 67°17' E 014°22'0 0.0
2014-Mar-21 13:33N 67°17' E 014°22'0 0.0
2014-Mar-21 12:33N 67°17' E 014°22'0 0.0
2014-Mar-21 11:33N 67°17' E 014°22'9 9.2
2014-Mar-21 10:32N 67°11' E 014°05'16 0.9
2014-Mar-20 16:13N 66°59' E 013°36'1319.9
2014-Mar-20 15:33N 67°07' E 014°03'1313.0
2014-Mar-20 14:34N 67°17' E 014°24'1 0.7
2014-Mar-20 13:33N 67°17' E 014°22'0 0.0
2014-Mar-20 12:33N 67°17' E 014°22'0 0.0
2014-Mar-20 11:33N 67°17' E 014°22'9 8.6
2014-Mar-20 10:33N 67°11' E 014°06'3516.1
2014-Mar-20 08:23N 66°42' E 013°16'1315.4
2014-Mar-20 07:32N 66°31' E 013°00'2517.7
2014-Mar-20 06:09N 66°07' E 012°46'15 1.4
2014-Mar-19 19:32N 66°21' E 012°59'1010.4
2014-Mar-19 18:33N 66°31' E 013°00'4214.0
2014-Mar-19 15:31N 67°06' E 013°58'1414.6
2014-Mar-19 14:33N 67°17' E 014°22'0 0.0
2014-Mar-19 13:33N 67°17' E 014°22'0 0.0
2014-Mar-19 12:33N 67°17' E 014°22'0 0.0
2014-Mar-19 11:33N 67°17' E 014°22'0 0.0
2014-Mar-19 10:33N 67°17' E 014°22'0 0.0
2014-Mar-19 09:33N 67°17' E 014°22'8 7.7
2014-Mar-19 08:33N 67°25' E 014°26'0 0.0
2014-Mar-18 16:33N 67°25' E 014°27'8 7.8
2014-Mar-18 15:33N 67°17' E 014°22'0 0.0
2014-Mar-18 14:33N 67°17' E 014°22'0 0.0
2014-Mar-18 13:33N 67°17' E 014°22'0 0.0
2014-Mar-18 12:33N 67°17' E 014°22'0 0.0
2014-Mar-18 11:33N 67°17' E 014°22'0 0.0
2014-Mar-18 10:33N 67°17' E 014°22'0 0.0
2014-Mar-18 09:33N 67°17' E 014°22'9 9.2
2014-Mar-18 08:33N 67°26' E 014°27'2 0.1
2014-Mar-17 16:33N 67°24' E 014°31'8 8.0
2014-Mar-17 15:33N 67°17' E 014°22'0 0.0
2014-Mar-17 14:33N 67°17' E 014°22'0 0.0
2014-Mar-17 13:33N 67°17' E 014°22'0 0.0
2014-Mar-17 12:33N 67°17' E 014°22'0 0.0
2014-Mar-17 11:33N 67°17' E 014°22'0 0.0
2014-Mar-17 10:33N 67°17' E 014°22'0 0.0
2014-Mar-17 09:33N 67°17' E 014°22'9 9.1
2014-Mar-17 08:33N 67°26' E 014°28'9 0.7
2014-Mar-16 19:33N 67°18' E 014°22'1 0.5
2014-Mar-16 18:33N 67°17' E 014°22'  

Dump ship's entire track history

sailing weather and tide predictions

Salten — LMFM — position and weather